createdAt,value
2023-01-27T00:03:50.008Z,103437.72
2023-01-27T00:06:19.272Z,103453.03
2023-01-27T00:08:47.263Z,103452.34
2023-01-27T00:12:30.498Z,103447.41
2023-01-27T00:14:58.577Z,103443.78
2023-01-27T00:17:26.497Z,103446.84
2023-01-27T00:19:58.151Z,103439.25
2023-01-27T00:22:43.749Z,103450.91
2023-01-27T00:29:24.793Z,103440.50
2023-01-27T00:32:10.656Z,103444.16
2023-01-27T00:34:39.254Z,103450.56
2023-01-27T00:37:08.748Z,103448.00
2023-01-27T00:39:36.795Z,103441.03
2023-01-27T00:42:07.308Z,103442.91
2023-01-27T00:44:36.834Z,103429.09
2023-01-27T00:47:04.984Z,103427.56
2023-01-27T00:49:32.991Z,103418.75
2023-01-27T00:52:04.552Z,103411.97
2023-01-27T00:54:34.050Z,103424.34
2023-01-27T00:57:02.106Z,103433.16
2023-01-27T00:59:34.088Z,103422.63
2023-01-27T01:02:02.646Z,103419.97
2023-01-27T01:04:31.507Z,103388.88
2023-01-27T01:06:59.855Z,103404.34
2023-01-27T01:09:28.151Z,103384.03
2023-01-27T01:11:57.480Z,103404.59
2023-01-27T01:14:25.902Z,103403.78
2023-01-27T01:16:56.261Z,103386.44
2023-01-27T01:19:24.407Z,103397.00
2023-01-27T01:21:52.773Z,103379.88
2023-01-27T01:24:21.171Z,103385.25
2023-01-27T01:26:49.157Z,103382.78
2023-01-27T01:29:18.700Z,103364.84
2023-01-27T01:31:46.767Z,103389.09
2023-01-27T01:34:14.818Z,103375.22
2023-01-27T01:36:48.745Z,103370.13
2023-01-27T01:39:16.909Z,103372.06
2023-01-27T01:41:46.454Z,103353.81
2023-01-27T01:44:26.702Z,103374.72
2023-01-27T01:46:54.937Z,103376.56
2023-01-27T01:49:26.809Z,103360.00
2023-01-27T01:51:56.042Z,103363.44
2023-01-27T01:54:25.396Z,103361.72
2023-01-27T01:56:54.604Z,103343.94
2023-01-27T01:59:26.692Z,103367.94
2023-01-27T02:01:55.561Z,103348.81
2023-01-27T02:04:27.424Z,103348.16
2023-01-27T02:06:58.742Z,103337.81
2023-01-27T02:09:26.756Z,103348.22
2023-01-27T02:11:56.252Z,103355.13
2023-01-27T02:14:25.696Z,103346.69
2023-01-27T02:16:54.430Z,103368.38
2023-01-27T02:19:25.947Z,103340.56
2023-01-27T02:21:54.299Z,103350.94
2023-01-27T02:24:22.355Z,103352.75
2023-01-27T02:26:53.903Z,103360.69
2023-01-27T02:29:22.813Z,103351.22
2023-01-27T02:31:50.854Z,103349.56
2023-01-27T02:34:20.955Z,103345.38
2023-01-27T02:36:50.921Z,103342.13
2023-01-27T02:39:20.041Z,103330.13
2023-01-27T02:41:49.209Z,103338.69
2023-01-27T02:44:20.684Z,103334.13
2023-01-27T02:46:48.862Z,103331.50
2023-01-27T02:49:16.911Z,103340.97
2023-01-27T02:51:45.761Z,103337.47
2023-01-27T02:54:13.813Z,103341.91
2023-01-27T02:56:42.821Z,103327.97
2023-01-27T02:59:13.531Z,103326.13
2023-01-27T03:01:44.739Z,103328.69
2023-01-27T03:04:13.120Z,103324.25
2023-01-27T03:06:43.427Z,103324.25
2023-01-27T03:09:11.928Z,103312.72
2023-01-27T03:11:57.205Z,103299.66
2023-01-27T03:14:42.671Z,103309.13
2023-01-27T03:17:29.300Z,103311.78
2023-01-27T03:19:58.182Z,103304.78
2023-01-27T03:22:26.910Z,103300.50
2023-01-27T03:24:58.496Z,103301.47
2023-01-27T03:27:26.998Z,103317.13
2023-01-27T03:30:15.434Z,103312.69
2023-01-27T03:32:57.053Z,103306.59
2023-01-27T03:35:49.290Z,103303.38
2023-01-27T03:38:39.216Z,103319.88
2023-01-27T03:41:27.425Z,103304.91
2023-01-27T03:44:13.206Z,103317.13
2023-01-27T03:46:44.562Z,103304.91
2023-01-27T03:49:14.078Z,103303.97
2023-01-27T03:51:42.525Z,103303.06
2023-01-27T03:54:10.883Z,103301.34
2023-01-27T03:56:38.988Z,103295.78
2023-01-27T03:59:08.920Z,103293.03
2023-01-27T04:01:36.995Z,103296.38
2023-01-27T04:04:22.349Z,103289.22
2023-01-27T04:07:00.756Z,103296.31
2023-01-27T04:09:29.628Z,103298.81
2023-01-27T04:12:00.035Z,103291.75
2023-01-27T04:14:30.284Z,103292.66
2023-01-27T04:16:59.230Z,103298.63
2023-01-27T04:19:27.177Z,103300.22
2023-01-27T04:21:56.803Z,103293.19
2023-01-27T04:24:24.962Z,103262.88
2023-01-27T04:26:56.605Z,103289.59
2023-01-27T04:29:25.934Z,103280.78
2023-01-27T04:31:55.841Z,103285.09
2023-01-27T04:34:23.939Z,103284.03
2023-01-27T04:36:52.906Z,103283.94
2023-01-27T04:39:23.807Z,103284.69
2023-01-27T04:41:51.953Z,103259.63
2023-01-27T04:44:21.335Z,103282.56
2023-01-27T04:46:49.572Z,103270.38
2023-01-27T04:49:20.248Z,103273.81
2023-01-27T04:51:50.684Z,103285.84
2023-01-27T04:54:20.904Z,103284.13
2023-01-27T04:57:07.666Z,103268.28
2023-01-27T04:59:35.650Z,103254.47
2023-01-27T05:02:04.672Z,103282.13
2023-01-27T05:04:32.950Z,103287.41
2023-01-27T05:07:00.923Z,103291.72
2023-01-27T05:09:28.969Z,103289.09
2023-01-27T05:11:58.233Z,103293.44
2023-01-27T05:14:27.873Z,103291.72
2023-01-27T05:16:56.697Z,103280.53
2023-01-27T05:19:27.121Z,103290.22
2023-01-27T05:21:55.170Z,103298.97
2023-01-27T05:24:25.623Z,103288.50
2023-01-27T05:26:54.509Z,103284.81
2023-01-27T05:29:24.589Z,103280.31
2023-01-27T05:31:54.007Z,103265.91
2023-01-27T05:34:22.074Z,103279.53
2023-01-27T05:36:52.269Z,103258.06
2023-01-27T05:39:20.373Z,103276.78
2023-01-27T05:41:48.402Z,103277.72
2023-01-27T05:44:16.506Z,103285.34
2023-01-27T05:49:27.856Z,103273.72
2023-01-27T05:51:55.833Z,103273.63
2023-01-27T05:54:26.215Z,103267.59
2023-01-27T05:56:55.582Z,103275.34
2023-01-27T05:59:25.465Z,103269.97
2023-01-27T06:01:54.277Z,103280.41
2023-01-27T06:04:22.594Z,103280.28
2023-01-27T06:06:51.940Z,103282.94
2023-01-27T06:09:19.972Z,103276.84
2023-01-27T06:11:48.571Z,103278.69
2023-01-27T06:14:16.559Z,103285.66
2023-01-27T06:16:47.536Z,103282.19
2023-01-27T06:19:15.835Z,103276.03
2023-01-27T06:21:44.556Z,103287.41
2023-01-27T06:24:16.309Z,103283.72
2023-01-27T06:26:44.418Z,103279.22
2023-01-27T06:29:12.448Z,103285.22
2023-01-27T06:31:40.452Z,103268.66
2023-01-27T06:34:08.531Z,103250.69
2023-01-27T06:36:37.117Z,103274.66
2023-01-27T06:39:06.394Z,103267.66
2023-01-27T06:41:37.009Z,103265.25
2023-01-27T06:44:05.080Z,103275.63
2023-01-27T06:46:34.293Z,103283.47
2023-01-27T06:49:02.370Z,103283.38
2023-01-27T06:51:30.409Z,103263.66
2023-01-27T06:53:58.434Z,103270.19
2023-01-27T06:56:26.499Z,103272.94
2023-01-27T06:58:55.870Z,103272.84
2023-01-27T07:01:23.834Z,103290.25
2023-01-27T07:03:52.042Z,103284.13
2023-01-27T07:06:20.336Z,103274.56
2023-01-27T07:08:50.521Z,103264.59
2023-01-27T07:11:18.517Z,103286.06
2023-01-27T07:13:46.626Z,103287.03
2023-01-27T07:16:16.106Z,103285.22
2023-01-27T07:18:44.197Z,103281.75
2023-01-27T07:21:12.792Z,103285.31
2023-01-27T07:23:48.347Z,103282.53
2023-01-27T07:26:24.889Z,103269.22
2023-01-27T07:28:56.266Z,103274.66
2023-01-27T07:31:25.811Z,103273.47
2023-01-27T07:33:53.967Z,103283.03
2023-01-27T07:36:21.998Z,103261.25
2023-01-27T07:38:50.919Z,103274.81
2023-01-27T07:41:49.354Z,103287.72
2023-01-27T07:44:21.877Z,103289.19
2023-01-27T07:46:51.375Z,103285.41
2023-01-27T07:49:19.394Z,103291.81
2023-01-27T07:51:52.139Z,103291.47
2023-01-27T07:54:22.887Z,103263.59
2023-01-27T07:56:51.057Z,103295.06
2023-01-27T07:59:23.654Z,103300.91
2023-01-27T08:01:53.186Z,103292.72
2023-01-27T08:04:27.347Z,103295.97
2023-01-27T08:06:55.499Z,103297.63
2023-01-27T08:09:24.262Z,103306.16
2023-01-27T08:11:53.304Z,103299.91
2023-01-27T08:14:22.673Z,103304.25
2023-01-27T08:16:50.790Z,103315.59
2023-01-27T08:19:20.521Z,103306.16
2023-01-27T08:21:50.998Z,103326.06
2023-01-27T08:24:19.335Z,103307.03
2023-01-27T08:26:47.604Z,103327.78
2023-01-27T08:29:15.683Z,103336.34
2023-01-27T08:31:45.825Z,103334.47
2023-01-27T08:34:16.797Z,103330.97
2023-01-27T08:36:47.914Z,103334.41
2023-01-27T08:39:16.216Z,103328.19
2023-01-27T08:41:44.309Z,103339.31
2023-01-27T08:44:12.395Z,103322.88
2023-01-27T08:46:40.476Z,103326.84
2023-01-27T08:49:08.767Z,103326.00
2023-01-27T08:51:36.936Z,103344.06
2023-01-27T08:54:07.315Z,103346.59
2023-01-27T08:56:41.531Z,103343.94
2023-01-27T08:59:09.882Z,103340.38
2023-01-27T09:01:38.247Z,103349.94
2023-01-27T09:04:08.265Z,103344.53
2023-01-27T09:06:36.299Z,103332.63
2023-01-27T09:09:12.001Z,103331.94
2023-01-27T09:11:44.308Z,103341.84
2023-01-27T09:14:12.570Z,103360.06
2023-01-27T09:16:40.640Z,103361.91
2023-01-27T09:19:09.792Z,103360.19
2023-01-27T09:21:37.860Z,103364.50
2023-01-27T09:24:06.419Z,103367.47
2023-01-27T09:26:35.039Z,103371.50
2023-01-27T09:29:04.908Z,103372.22
2023-01-27T09:31:33.259Z,103373.84
2023-01-27T09:34:01.504Z,103348.31
2023-01-27T09:36:32.296Z,103364.28
2023-01-27T09:39:15.546Z,103384.00
2023-01-27T09:42:04.295Z,103361.16
2023-01-27T09:45:03.395Z,103378.00
2023-01-27T09:47:52.677Z,103384.03
2023-01-27T09:50:30.497Z,103346.00
2023-01-27T09:53:30.994Z,103400.38
2023-01-27T09:56:02.155Z,103394.63
2023-01-27T09:58:35.813Z,103390.06
2023-01-27T10:01:18.431Z,103396.28
2023-01-27T10:04:07.173Z,103394.56
2023-01-27T10:06:44.182Z,103380.53
2023-01-27T10:09:28.349Z,103384.50
2023-01-27T10:11:59.756Z,103378.59
2023-01-27T10:14:32.630Z,103395.41
2023-01-27T10:17:24.279Z,103391.47
2023-01-27T10:20:00.686Z,103371.66
2023-01-27T10:22:35.114Z,103384.53
2023-01-27T10:25:14.195Z,103375.72
2023-01-27T10:27:47.028Z,103388.97
2023-01-27T10:30:17.722Z,103356.28
2023-01-27T10:32:52.936Z,103378.59
2023-01-27T10:35:21.978Z,103362.84
2023-01-27T10:37:58.856Z,103385.31
2023-01-27T10:40:32.271Z,103386.03
2023-01-27T10:43:04.550Z,103386.03
2023-01-27T10:45:37.681Z,103374.00
2023-01-27T10:48:33.623Z,103382.88
2023-01-27T10:51:08.944Z,103372.72
2023-01-27T10:53:50.910Z,103381.03
2023-01-27T10:56:25.582Z,103362.38
2023-01-27T10:58:56.915Z,103368.00
2023-01-27T11:01:30.090Z,103381.91
2023-01-27T11:04:03.458Z,103388.41
2023-01-27T11:06:33.672Z,103378.59
2023-01-27T11:09:10.581Z,103378.59
2023-01-27T11:11:49.396Z,103394.22
2023-01-27T11:14:22.649Z,103388.56
2023-01-27T11:16:56.091Z,103390.78
2023-01-27T11:19:50.529Z,103387.50
2023-01-27T11:22:32.306Z,103387.06
2023-01-27T11:25:05.761Z,103390.22
2023-01-27T11:27:48.956Z,103349.34
2023-01-27T11:30:19.605Z,103360.00
2023-01-27T11:32:56.517Z,103369.72
2023-01-27T11:35:26.668Z,103376.63
2023-01-27T11:38:15.004Z,103376.47
2023-01-27T11:40:43.644Z,103372.91
2023-01-27T11:43:15.443Z,103354.03
2023-01-27T11:45:46.211Z,103361.78
2023-01-27T11:48:15.511Z,103328.22
2023-01-27T11:50:46.507Z,103345.47
2023-01-27T11:53:19.144Z,103315.56
2023-01-27T11:55:50.339Z,103315.69
2023-01-27T11:58:27.178Z,103334.03
2023-01-27T12:00:57.859Z,103301.34
2023-01-27T12:03:30.421Z,103322.94
2023-01-27T12:06:02.398Z,103321.28
2023-01-27T12:08:42.499Z,103321.09
2023-01-27T12:11:26.903Z,103296.91
2023-01-27T12:13:56.611Z,103319.50
2023-01-27T12:16:29.974Z,103315.22
2023-01-27T12:19:03.238Z,103302.56
2023-01-27T12:22:03.995Z,103309.47
2023-01-27T12:24:33.065Z,103315.13
2023-01-27T12:27:01.227Z,103317.19
2023-01-27T12:29:32.797Z,103305.38
2023-01-27T12:32:01.344Z,103293.22
2023-01-27T12:34:36.567Z,103269.97
2023-01-27T12:37:08.157Z,103290.56
2023-01-27T12:39:44.305Z,103292.13
2023-01-27T12:42:45.401Z,103291.97
2023-01-27T12:45:29.903Z,103269.66
2023-01-27T12:48:05.027Z,103273.25
2023-01-27T12:50:34.851Z,103280.25
2023-01-27T12:53:23.885Z,103291.88
2023-01-27T12:55:58.880Z,103268.25
2023-01-27T12:58:31.176Z,103274.94
2023-01-27T13:01:00.943Z,103274.81
2023-01-27T13:03:29.399Z,103278.09
2023-01-27T13:06:10.670Z,103253.22
2023-01-27T13:08:41.480Z,103267.09
2023-01-27T13:11:11.435Z,103253.50
2023-01-27T13:13:39.813Z,103265.75
2023-01-27T13:16:16.104Z,103265.34
2023-01-27T13:18:44.302Z,103265.28
2023-01-27T13:21:14.794Z,103262.00
2023-01-27T13:23:44.442Z,103261.53
2023-01-27T13:26:19.241Z,103226.31
2023-01-27T13:28:53.030Z,103260.78
2023-01-27T13:31:32.675Z,103255.03
2023-01-27T13:34:02.824Z,103247.47
2023-01-27T13:36:37.010Z,103229.13
2023-01-27T13:39:11.711Z,103223.44
2023-01-27T13:41:44.309Z,103241.81
2023-01-27T13:44:19.230Z,103250.56
2023-01-27T13:46:47.814Z,103209.50
2023-01-27T13:49:30.504Z,103243.06
2023-01-27T13:51:58.726Z,103237.44
2023-01-27T13:54:31.209Z,103223.47
2023-01-27T13:57:13.497Z,103242.22
2023-01-27T13:59:47.212Z,103216.22
2023-01-27T14:02:57.800Z,103231.72
2023-01-27T14:05:40.227Z,103227.97
2023-01-27T14:08:38.114Z,103205.22
2023-01-27T14:11:24.399Z,103242.47
2023-01-27T14:14:16.225Z,103224.91
2023-01-27T14:16:53.189Z,103239.34
2023-01-27T14:19:40.787Z,103223.91
2023-01-27T14:22:14.169Z,103220.66
2023-01-27T14:25:00.499Z,103212.47
2023-01-27T14:27:36.811Z,103210.75
2023-01-27T14:30:09.653Z,103199.28
2023-01-27T14:32:44.831Z,103234.03
2023-01-27T14:35:21.486Z,103239.78
2023-01-27T14:37:54.957Z,103218.13
2023-01-27T14:40:27.598Z,103231.75
2023-01-27T14:43:17.872Z,103231.91
2023-01-27T14:45:51.745Z,103224.53
2023-01-27T14:48:28.038Z,103209.28
2023-01-27T14:51:01.011Z,103215.44
2023-01-27T14:54:08.741Z,103214.41
2023-01-27T14:56:43.414Z,103230.47
2023-01-27T14:59:20.983Z,103214.72
2023-01-27T15:01:53.670Z,103216.13
2023-01-27T15:04:43.950Z,103234.41
2023-01-27T15:07:16.156Z,103224.78
2023-01-27T15:10:04.254Z,103225.78
2023-01-27T15:12:54.324Z,103239.34
2023-01-27T15:16:00.553Z,103237.97
2023-01-27T15:18:40.027Z,103233.44
2023-01-27T15:21:25.868Z,103247.16
2023-01-27T15:24:28.249Z,103263.13
2023-01-27T15:26:57.332Z,103256.97
2023-01-27T15:29:27.326Z,103262.13
2023-01-27T15:32:27.412Z,103253.44
2023-01-27T15:35:37.517Z,103250.53
2023-01-27T15:38:20.310Z,103235.03
2023-01-27T15:41:07.256Z,103257.69
2023-01-27T15:43:39.979Z,103239.53
2023-01-27T15:46:25.323Z,103236.94
2023-01-27T15:49:01.198Z,103249.13
2023-01-27T15:51:38.555Z,103255.03
2023-01-27T15:54:10.980Z,103221.59
2023-01-27T15:56:44.736Z,103267.25
2023-01-27T15:59:15.629Z,103244.03
2023-01-27T16:01:44.497Z,103255.91
2023-01-27T16:04:19.728Z,103221.00
2023-01-27T16:06:50.187Z,103265.94
2023-01-27T16:09:30.670Z,103273.41
2023-01-27T16:12:03.594Z,103259.91
2023-01-27T16:14:53.157Z,103267.63
2023-01-27T16:17:23.135Z,103264.47
2023-01-27T16:20:04.628Z,103275.88
2023-01-27T16:22:34.510Z,103265.34
2023-01-27T16:25:12.770Z,103271.44
2023-01-27T16:27:45.588Z,103246.75
2023-01-27T16:30:18.954Z,103237.50
2023-01-27T16:33:04.112Z,103261.06
2023-01-27T16:35:33.869Z,103276.16
2023-01-27T16:38:11.080Z,103260.00
2023-01-27T16:40:40.827Z,103266.16
2023-01-27T16:43:16.275Z,103272.03
2023-01-27T16:45:46.312Z,103282.75
2023-01-27T16:48:21.805Z,103277.75
2023-01-27T16:50:50.249Z,103294.50
2023-01-27T16:53:20.975Z,103298.06
2023-01-27T16:56:03.414Z,103270.88
2023-01-27T16:58:45.829Z,103296.75
2023-01-27T17:01:21.890Z,103301.91
2023-01-27T17:03:49.990Z,103315.09
2023-01-27T17:06:18.015Z,103312.50
2023-01-27T17:08:46.181Z,103299.75
2023-01-27T17:11:23.658Z,103303.13
2023-01-27T17:14:04.230Z,103306.72
2023-01-27T17:16:34.470Z,103311.41
2023-01-27T17:19:07.863Z,103319.72
2023-01-27T17:21:38.011Z,103315.63
2023-01-27T17:24:11.287Z,103328.19
2023-01-27T17:26:43.917Z,103333.78
2023-01-27T17:29:24.074Z,103333.09
2023-01-27T17:31:52.322Z,103320.41
2023-01-27T17:34:21.675Z,103345.72
2023-01-27T17:37:08.132Z,103350.22
2023-01-27T17:39:36.449Z,103346.84
2023-01-27T17:42:09.131Z,103335.09
2023-01-27T17:44:37.192Z,103352.69
2023-01-27T17:47:05.613Z,103353.19
2023-01-27T17:49:33.707Z,103344.50
2023-01-27T17:52:02.278Z,103357.75
2023-01-27T17:54:31.235Z,103341.91
2023-01-27T17:57:04.150Z,103360.34
2023-01-27T17:59:33.913Z,103348.63
2023-01-27T18:02:08.911Z,103373.25
2023-01-27T18:04:39.449Z,103373.34
2023-01-27T18:07:07.694Z,103373.53
2023-01-27T18:09:37.739Z,103364.88
2023-01-27T18:12:07.144Z,103378.97
2023-01-27T18:14:36.703Z,103382.31
2023-01-27T18:17:20.064Z,103378.75
2023-01-27T18:19:51.225Z,103374.41
2023-01-27T18:22:19.269Z,103375.19
2023-01-27T18:24:54.042Z,103378.28
2023-01-27T18:27:26.995Z,103372.69
2023-01-27T18:30:00.333Z,103372.50
2023-01-27T18:32:29.281Z,103373.16
2023-01-27T18:34:58.019Z,103377.22
2023-01-27T18:37:29.425Z,103380.47
2023-01-27T18:39:59.272Z,103378.53
2023-01-27T18:42:28.560Z,103371.50
2023-01-27T18:45:00.374Z,103371.34
2023-01-27T18:47:32.301Z,103373.13
2023-01-27T18:50:03.085Z,103379.53
2023-01-27T18:52:31.369Z,103386.34
2023-01-27T18:55:03.381Z,103375.78
2023-01-27T18:57:32.377Z,103375.78
2023-01-27T19:00:02.171Z,103353.44
2023-01-27T19:02:30.316Z,103364.00
2023-01-27T19:04:58.333Z,103384.84
2023-01-27T19:07:27.453Z,103381.38
2023-01-27T19:09:56.028Z,103378.63
2023-01-27T19:12:34.554Z,103396.03
2023-01-27T19:15:06.040Z,103368.47
2023-01-27T19:17:41.303Z,103385.63
2023-01-27T19:20:20.056Z,103384.13
2023-01-27T19:22:48.389Z,103393.06
2023-01-27T19:25:16.624Z,103395.72
2023-01-27T19:27:47.762Z,103391.53
2023-01-27T19:30:26.038Z,103393.44
2023-01-27T19:32:54.393Z,103398.81
2023-01-27T19:35:23.900Z,103396.22
2023-01-27T19:37:51.983Z,103399.03
2023-01-27T19:40:20.775Z,103375.19
2023-01-27T19:42:48.837Z,103404.44
2023-01-27T19:45:18.031Z,103387.22
2023-01-27T19:47:49.113Z,103401.00
2023-01-27T19:50:21.348Z,103399.16
2023-01-27T19:52:49.728Z,103401.00
2023-01-27T19:55:20.977Z,103380.75
2023-01-27T19:57:51.738Z,103377.25
2023-01-27T20:00:26.545Z,103401.44
2023-01-27T20:04:02.966Z,103404.94
2023-01-27T20:06:32.645Z,103418.41
2023-01-27T20:09:05.037Z,103419.28
2023-01-27T20:11:36.596Z,103402.16
2023-01-27T20:14:05.394Z,103421.13
2023-01-27T20:16:33.787Z,103428.13
2023-01-27T20:19:01.826Z,103421.41
2023-01-27T20:21:32.061Z,103412.72
2023-01-27T20:24:01.800Z,103399.03
2023-01-27T20:26:32.563Z,103424.22
2023-01-27T20:29:00.779Z,103408.88
2023-01-27T20:31:30.208Z,103426.97
2023-01-27T20:33:58.331Z,103423.47
2023-01-27T20:36:26.563Z,103424.03
2023-01-27T20:38:54.576Z,103429.38
2023-01-27T20:41:24.546Z,103436.38
2023-01-27T20:43:55.815Z,103431.91
2023-01-27T20:46:25.103Z,103431.91
2023-01-27T20:49:02.143Z,103429.28
2023-01-27T20:51:30.158Z,103416.94
2023-01-27T20:54:01.144Z,103417.91
2023-01-27T20:56:30.900Z,103417.81
2023-01-27T20:58:58.894Z,103417.66
2023-01-27T21:01:27.252Z,103419.38
2023-01-27T21:03:55.305Z,103419.50
2023-01-27T21:06:23.349Z,103427.34
2023-01-27T21:08:51.356Z,103431.78
2023-01-27T21:11:21.562Z,103410.91
2023-01-27T21:13:52.629Z,103393.91
2023-01-27T21:16:21.011Z,103426.50
2023-01-27T21:18:51.434Z,103427.50
2023-01-27T21:21:24.050Z,103417.22
2023-01-27T21:23:52.865Z,103421.47
2023-01-27T21:26:23.530Z,103425.81
2023-01-27T21:28:53.083Z,103430.19
2023-01-27T21:31:22.596Z,103429.31
2023-01-27T21:33:50.849Z,103425.16
2023-01-27T21:36:22.939Z,103421.66
2023-01-27T21:38:53.953Z,103431.34
2023-01-27T21:41:43.106Z,103435.66
2023-01-27T21:44:34.047Z,103437.53
2023-01-27T21:47:02.923Z,103428.69
2023-01-27T21:49:30.938Z,103433.75
2023-01-27T21:52:06.780Z,103395.78
2023-01-27T21:54:34.890Z,103429.94
2023-01-27T21:57:02.855Z,103429.84
2023-01-27T21:59:42.428Z,103431.53
2023-01-27T22:02:12.237Z,103416.06
2023-01-27T22:04:42.118Z,103426.50
2023-01-27T22:07:11.126Z,103421.22
2023-01-27T22:09:47.281Z,103412.72
2023-01-27T22:12:16.153Z,103412.72
2023-01-27T22:14:45.465Z,103409.31
2023-01-27T22:17:14.760Z,103413.59
2023-01-27T22:19:42.833Z,103409.94
2023-01-27T22:22:11.200Z,103405.63
2023-01-27T22:24:39.221Z,103414.91
2023-01-27T22:27:07.417Z,103426.16
2023-01-27T22:29:35.658Z,103411.22
2023-01-27T22:32:05.014Z,103418.53
2023-01-27T22:34:33.404Z,103418.41
2023-01-27T22:37:38.818Z,103420.19
2023-01-27T22:40:07.577Z,103411.72
2023-01-27T22:42:35.788Z,103384.06
2023-01-27T22:45:03.795Z,103413.38
2023-01-27T22:47:33.224Z,103385.78
2023-01-27T22:50:01.615Z,103379.38
2023-01-27T22:52:32.532Z,103373.81
2023-01-27T22:55:09.385Z,103414.91
2023-01-27T22:57:45.071Z,103385.25
2023-01-27T23:00:13.762Z,103399.06
2023-01-27T23:02:43.333Z,103394.56
2023-01-27T23:05:11.426Z,103394.72
2023-01-27T23:07:42.420Z,103413.16
2023-01-27T23:10:11.547Z,103406.88
2023-01-27T23:17:26.300Z,103408.94
2023-01-27T23:19:58.506Z,103396.06
2023-01-27T23:22:26.492Z,103412.09
2023-01-27T23:24:56.556Z,103410.31
2023-01-27T23:27:24.610Z,103411.13
2023-01-27T23:29:52.639Z,103420.63
2023-01-27T23:32:20.722Z,103410.06
2023-01-27T23:34:49.074Z,103404.06
2023-01-27T23:38:32.662Z,103408.44
2023-01-27T23:41:03.481Z,103420.25
2023-01-27T23:43:33.060Z,103414.09
2023-01-27T23:46:01.414Z,103417.56
2023-01-27T23:48:30.039Z,103419.28
2023-01-27T23:50:58.036Z,103418.34
2023-01-27T23:53:26.344Z,103415.84
2023-01-27T23:55:57.427Z,103419.34
2023-01-27T23:58:27.591Z,103419.38
